createdAt,value
2023-02-01T00:00:55.330Z,22.65
2023-02-01T00:05:58.843Z,30.08
2023-02-01T00:11:02.821Z,29.10
2023-02-01T00:16:22.542Z,27.08
2023-02-01T00:21:21.549Z,24.50
2023-02-01T00:26:44.972Z,30.20
2023-02-01T00:36:38.167Z,30.45
2023-02-01T00:41:34.707Z,26.20
2023-02-01T00:46:31.555Z,25.60
2023-02-01T00:51:29.716Z,31.73
2023-02-01T00:56:28.334Z,31.25
2023-02-01T01:01:27.021Z,24.95
2023-02-01T01:06:30.961Z,35.42
2023-02-01T01:11:30.949Z,23.30
2023-02-01T01:16:29.740Z,28.70
2023-02-01T01:21:27.018Z,47.83
2023-02-01T01:26:26.576Z,36.08
2023-02-01T01:31:23.096Z,30.38
2023-02-01T01:36:19.917Z,32.08
2023-02-01T01:41:22.334Z,40.90
2023-02-01T01:46:22.126Z,39.58
2023-02-01T01:51:23.111Z,43.75
2023-02-01T01:56:19.571Z,30.63
2023-02-01T02:01:16.239Z,38.00
2023-02-01T02:06:21.168Z,34.45
2023-02-01T02:11:18.173Z,49.03
2023-02-01T02:16:35.962Z,32.05
2023-02-01T02:21:54.186Z,28.80
2023-02-01T02:26:58.490Z,35.15
2023-02-01T02:32:13.617Z,34.22
2023-02-01T02:37:29.561Z,31.38
2023-02-01T02:43:13.805Z,38.70
2023-02-01T02:48:25.390Z,36.65
2023-02-01T02:53:59.273Z,37.78
2023-02-01T02:59:14.684Z,33.08
2023-02-01T03:04:18.197Z,35.20
2023-02-01T03:09:21.436Z,35.80
2023-02-01T03:14:21.961Z,38.95
2023-02-01T03:19:27.462Z,35.83
2023-02-01T03:24:34.156Z,34.63
2023-02-01T03:29:38.509Z,28.80
2023-02-01T03:34:34.893Z,37.90
2023-02-01T03:39:54.293Z,31.13
2023-02-01T03:44:56.139Z,26.73
2023-02-01T03:50:00.466Z,21.00
2023-02-01T03:54:57.899Z,17.83
2023-02-01T03:59:54.322Z,23.83
2023-02-01T04:04:50.765Z,26.48
2023-02-01T04:09:47.325Z,27.25
2023-02-01T04:14:43.752Z,22.33
2023-02-01T04:19:40.192Z,26.88
2023-02-01T04:24:37.366Z,26.55
2023-02-01T04:29:34.423Z,29.50
2023-02-01T04:34:31.097Z,22.02
2023-02-01T04:39:27.542Z,28.27
2023-02-01T04:44:24.111Z,24.10
2023-02-01T04:49:22.170Z,22.42
2023-02-01T04:54:18.698Z,20.70
2023-02-01T04:59:15.231Z,19.52
2023-02-01T05:04:12.630Z,24.92
2023-02-01T05:09:09.083Z,18.92
2023-02-01T05:14:05.542Z,18.13
2023-02-01T05:19:01.956Z,13.98
2023-02-01T05:24:36.542Z,16.73
2023-02-01T05:29:32.998Z,14.60
2023-02-01T05:34:29.491Z,15.38
2023-02-01T05:39:26.050Z,14.57
2023-02-01T05:44:22.459Z,13.52
2023-02-01T05:49:19.083Z,15.43
2023-02-01T05:54:16.541Z,14.57
2023-02-01T05:59:12.967Z,13.35
2023-02-01T06:04:09.388Z,13.77
2023-02-01T06:09:06.018Z,15.45
2023-02-01T06:14:02.860Z,15.90
2023-02-01T06:18:59.319Z,15.38
2023-02-01T06:23:56.411Z,16.40
2023-02-01T06:28:53.322Z,16.63
2023-02-01T06:33:50.640Z,17.38
2023-02-01T06:38:47.075Z,18.00
2023-02-01T06:43:44.487Z,20.15
2023-02-01T06:48:41.025Z,20.05
2023-02-01T06:53:37.428Z,18.35
2023-02-01T06:58:34.881Z,28.52
2023-02-01T07:03:31.287Z,27.90
2023-02-01T07:08:28.830Z,24.60
2023-02-01T07:13:25.255Z,23.85
2023-02-01T07:18:21.736Z,19.50
2023-02-01T07:23:18.209Z,22.40
2023-02-01T07:28:14.907Z,29.67
2023-02-01T07:33:11.346Z,23.95
2023-02-01T07:38:07.732Z,35.47
2023-02-01T07:43:06.944Z,29.20
2023-02-01T07:48:04.183Z,26.30
2023-02-01T07:53:01.701Z,28.73
2023-02-01T07:57:59.488Z,28.27
2023-02-01T08:02:58.831Z,30.52
2023-02-01T08:07:55.305Z,36.10
2023-02-01T08:12:52.768Z,41.90
2023-02-01T08:17:50.573Z,32.03
2023-02-01T08:22:46.989Z,41.05
2023-02-01T08:27:43.507Z,40.38
2023-02-01T08:32:40.059Z,31.30
2023-02-01T08:37:37.221Z,29.60
2023-02-01T08:42:52.053Z,30.30
2023-02-01T08:47:48.716Z,22.63
2023-02-01T08:52:45.182Z,10.35
2023-02-01T08:57:42.599Z,21.00
2023-02-01T09:02:39.073Z,24.92
2023-02-01T09:07:35.589Z,26.30
2023-02-01T09:12:35.109Z,27.23
2023-02-01T09:17:31.555Z,33.83
2023-02-01T09:22:28.013Z,30.90
2023-02-01T09:27:24.545Z,31.88
2023-02-01T09:32:22.226Z,32.63
2023-02-01T09:37:19.253Z,43.00
2023-02-01T09:42:53.088Z,17.88
2023-02-01T09:47:58.786Z,37.10
2023-02-01T09:53:01.492Z,31.42
2023-02-01T09:58:06.565Z,27.30
2023-02-01T10:03:03.114Z,37.65
2023-02-01T10:08:27.215Z,32.88
2023-02-01T10:13:58.710Z,29.15
2023-02-01T10:19:17.529Z,21.80
2023-02-01T10:24:25.238Z,25.58
2023-02-01T10:29:25.740Z,25.65
2023-02-01T10:34:27.347Z,25.65
2023-02-01T10:39:24.351Z,28.00
2023-02-01T10:44:25.183Z,32.15
2023-02-01T10:49:39.381Z,20.60
2023-02-01T10:54:41.713Z,36.72
2023-02-01T10:59:39.273Z,34.97
2023-02-01T11:04:36.639Z,40.50
2023-02-01T11:09:33.498Z,33.70
2023-02-01T11:14:40.402Z,32.10
2023-02-01T11:19:36.917Z,30.35
2023-02-01T11:24:42.140Z,31.48
2023-02-01T11:29:42.447Z,38.78
2023-02-01T11:34:44.380Z,32.50
2023-02-01T11:39:40.882Z,39.60
2023-02-01T11:44:39.753Z,36.45
2023-02-01T11:49:36.241Z,26.95
2023-02-01T11:55:06.195Z,26.48
2023-02-01T12:00:15.353Z,26.67
2023-02-01T12:05:33.395Z,20.80
2023-02-01T12:10:44.469Z,16.70
2023-02-01T12:15:49.760Z,18.83
2023-02-01T12:21:16.049Z,22.08
2023-02-01T12:26:28.958Z,31.42
2023-02-01T12:31:34.388Z,29.35
2023-02-01T12:36:41.300Z,20.67
2023-02-01T12:41:44.353Z,21.95
2023-02-01T12:47:01.932Z,18.52
2023-02-01T12:52:04.347Z,18.60
2023-02-01T12:57:11.963Z,19.73
2023-02-01T13:02:34.272Z,18.73
2023-02-01T13:07:43.835Z,17.92
2023-02-01T13:13:10.780Z,19.15
2023-02-01T13:18:14.831Z,19.50
2023-02-01T13:23:31.191Z,19.40
2023-02-01T13:28:33.221Z,11.60
2023-02-01T13:33:56.463Z,9.23
2023-02-01T13:39:24.175Z,8.68
2023-02-01T13:44:33.747Z,11.38
2023-02-01T13:49:37.512Z,12.77
2023-02-01T13:54:38.141Z,10.57
2023-02-01T13:59:40.469Z,14.48
2023-02-01T14:04:50.660Z,16.42
2023-02-01T14:09:47.109Z,21.50
2023-02-01T14:14:43.556Z,21.58
2023-02-01T14:19:39.990Z,21.20
2023-02-01T14:24:37.704Z,19.42
2023-02-01T14:29:37.570Z,22.95
2023-02-01T14:34:49.531Z,21.80
2023-02-01T14:39:45.899Z,20.10
2023-02-01T14:44:59.201Z,17.10
2023-02-01T14:49:56.267Z,14.43
2023-02-01T14:54:57.268Z,15.60
2023-02-01T15:00:01.218Z,15.13
2023-02-01T15:04:57.968Z,15.90
2023-02-01T15:09:57.904Z,14.65
2023-02-01T15:15:09.688Z,17.35
2023-02-01T15:20:17.053Z,20.38
2023-02-01T15:25:24.375Z,26.20
2023-02-01T15:30:24.370Z,20.27
2023-02-01T15:35:44.070Z,22.65
2023-02-01T15:40:59.521Z,18.90
2023-02-01T15:46:07.076Z,18.85
2023-02-01T15:51:04.640Z,24.92
2023-02-01T15:56:04.392Z,20.08
2023-02-01T16:01:05.552Z,23.98
2023-02-01T16:06:05.281Z,18.83
2023-02-01T16:11:25.856Z,25.45
2023-02-01T16:16:22.323Z,30.02
2023-02-01T16:21:19.065Z,28.05
2023-02-01T16:26:15.547Z,25.58
2023-02-01T16:31:22.115Z,34.90
2023-02-01T16:36:19.511Z,35.35
2023-02-01T16:41:18.610Z,38.20
2023-02-01T16:46:20.367Z,26.80
2023-02-01T16:51:17.792Z,26.73
2023-02-01T16:56:23.109Z,34.10
2023-02-01T17:01:20.301Z,25.73
2023-02-01T17:06:20.027Z,31.90
2023-02-01T17:11:16.825Z,27.23
2023-02-01T17:16:18.927Z,51.65
2023-02-01T17:21:15.570Z,33.00
2023-02-01T17:26:12.329Z,50.25
2023-02-01T17:31:14.244Z,42.63
2023-02-01T17:36:16.465Z,30.55
2023-02-01T17:41:14.991Z,34.60
2023-02-01T17:46:14.560Z,33.60
2023-02-01T17:51:17.293Z,28.02
2023-02-01T17:56:17.312Z,38.50
2023-02-01T18:01:22.935Z,28.77
2023-02-01T18:06:23.047Z,21.48
2023-02-01T18:11:21.505Z,24.92
2023-02-01T18:16:22.433Z,23.48
2023-02-01T18:21:22.166Z,20.23
2023-02-01T18:26:18.995Z,31.42
2023-02-01T18:31:32.119Z,20.95
2023-02-01T18:41:26.786Z,29.58
2023-02-01T18:46:23.419Z,25.10
2023-02-01T18:51:20.578Z,23.08
2023-02-01T18:56:18.654Z,29.45
2023-02-01T19:01:17.548Z,31.20
2023-02-01T19:06:15.374Z,24.10
2023-02-01T19:11:14.242Z,28.10
2023-02-01T19:16:13.455Z,33.72
2023-02-01T19:21:12.577Z,34.00
2023-02-01T19:26:17.240Z,29.08
2023-02-01T19:31:13.872Z,32.67
2023-02-01T19:36:11.117Z,30.23
2023-02-01T19:41:09.907Z,22.95
2023-02-01T19:46:06.298Z,19.58
2023-02-01T19:51:04.113Z,28.65
2023-02-01T19:56:01.649Z,17.15
2023-02-01T20:00:59.564Z,24.23
2023-02-01T20:05:58.315Z,25.23
2023-02-01T20:10:54.880Z,17.20
2023-02-01T20:15:59.286Z,23.08
2023-02-01T20:20:59.073Z,29.70
2023-02-01T20:26:04.887Z,41.30
2023-02-01T20:31:02.765Z,33.55
2023-02-01T20:35:59.603Z,38.53
2023-02-01T20:41:07.723Z,35.15
2023-02-01T20:46:04.812Z,32.20
2023-02-01T20:51:01.231Z,38.00
2023-02-01T20:55:58.419Z,34.35
2023-02-01T21:00:54.982Z,47.75
2023-02-01T21:05:54.295Z,34.42
2023-02-01T21:11:09.613Z,36.58
2023-02-01T21:16:12.141Z,27.65
2023-02-01T21:26:06.534Z,31.58
2023-02-01T21:31:02.939Z,28.77
2023-02-01T21:35:59.605Z,28.42
2023-02-01T21:41:14.362Z,30.67
2023-02-01T21:46:10.756Z,29.13
2023-02-01T21:51:09.193Z,29.08
2023-02-01T21:56:05.990Z,35.85
2023-02-01T22:01:02.782Z,29.40
2023-02-01T22:05:59.276Z,35.55
2023-02-01T22:10:55.688Z,27.83
2023-02-01T22:15:52.402Z,32.92
2023-02-01T22:20:48.848Z,39.13
2023-02-01T22:25:45.247Z,33.40
2023-02-01T22:30:41.699Z,34.28
2023-02-01T22:35:38.138Z,30.60
2023-02-01T22:40:34.599Z,41.63
2023-02-01T22:45:31.029Z,28.80
2023-02-01T22:50:27.393Z,34.80
2023-02-01T22:55:24.081Z,25.17
2023-02-01T23:00:24.715Z,39.15
2023-02-01T23:05:21.980Z,27.10
2023-02-01T23:10:20.004Z,57.20
2023-02-01T23:15:17.445Z,33.13
2023-02-01T23:20:16.817Z,32.50
2023-02-01T23:25:15.243Z,29.45
2023-02-01T23:30:12.157Z,34.72
2023-02-01T23:35:08.976Z,28.00
2023-02-01T23:40:06.030Z,30.30
2023-02-01T23:45:03.772Z,33.65
2023-02-01T23:50:00.196Z,31.13
2023-02-01T23:54:56.594Z,30.65
2023-02-01T23:59:53.035Z,31.80
